Time;durP1;ratioP1;P1;durP2;ratioP2;P2;SDS_P1;SDS_P2;PMS_P1;PMS_P2;Temp;Humidity;BMP_temperature;BMP_pressure;BME280_temperature;BME280_humidity;BME280_pressure;Samples;Min_cycle;Max_cycle;Signal;HPM_P1;HPM_P2
2024/02/23 00:00:33;;;;;;;;;6.00;5.00;;;;;11.72;55.23;98246.44;6310056;20;2747226;-50
2024/02/23 00:03:01;;;;;;;;;6.50;5.50;;;;;11.80;54.78;98235.84;6277626;20;2741053;-46
2024/02/23 00:05:28;;;;;;;;;5.00;5.00;;;;;11.78;54.84;98235.13;6280017;20;2745067;-50
2024/02/23 00:07:56;;;;;;;;;5.00;5.00;;;;;11.75;55.22;98232.72;6275223;20;2741960;-46
2024/02/23 00:10:25;;;;;;;;;7.00;6.00;;;;;11.81;55.02;98235.69;6278666;20;2742011;-47
2024/02/23 00:12:53;;;;;;;;;12.50;6.00;;;;;11.93;54.64;98241.88;6276868;20;2777480;-48
2024/02/23 00:15:23;;;;;;;;;2.50;2.50;;;;;11.90;54.59;98250.22;6292096;20;1821245;-46
2024/02/23 00:17:51;;;;;;;;;5.00;5.00;;;;;11.90;54.44;98242.16;6308934;20;2734740;-47
2024/02/23 00:20:19;;;;;;;;;9.00;6.00;;;;;12.01;54.15;98244.69;6277634;20;2740920;-47
2024/02/23 00:22:47;;;;;;;;;6.50;5.00;;;;;11.99;54.32;98243.13;6279812;20;2747173;-49
2024/02/23 00:25:14;;;;;;;;;4.50;4.50;;;;;12.03;54.28;98237.34;6275477;20;2736790;-47
2024/02/23 00:27:43;;;;;;;;;5.50;5.50;;;;;12.00;54.17;98239.44;6277337;20;2745166;-47
2024/02/23 00:30:12;;;;;;;;;7.00;6.00;;;;;11.97;54.13;98245.97;6279437;20;2737835;-47
2024/02/23 00:32:40;;;;;;;;;6.00;6.00;;;;;12.00;54.15;98232.22;6278131;20;2729500;-52
2024/02/23 00:35:08;;;;;;;;;6.50;6.50;;;;;11.98;54.37;98239.59;6275621;20;2744150;-46
2024/02/23 00:37:36;;;;;;;;;4.00;4.00;;;;;11.94;54.21;98238.16;6275741;20;2742121;-50
2024/02/23 00:40:09;;;;;;;;;5.00;5.00;;;;;11.99;53.80;98241.28;6278139;20;2747325;-48
2024/02/23 00:42:36;;;;;;;;;5.00;5.00;;;;;11.98;54.22;98223.47;6276380;20;2743022;-45
2024/02/23 00:45:05;;;;;;;;;5.50;5.50;;;;;12.03;54.16;98231.97;6278517;20;2735710;-46
2024/02/23 00:47:35;;;;;;;;;7.00;5.50;;;;;12.06;54.49;98237.06;6283118;20;2745081;-47
2024/02/23 00:50:03;;;;;;;;;7.00;7.00;;;;;11.94;55.26;98243.53;6283786;20;2738570;-47
2024/02/23 00:52:32;;;;;;;;;6.00;6.00;;;;;11.86;55.39;98229.94;6286953;20;2631568;-46
2024/02/23 00:55:00;;;;;;;;;7.00;6.00;;;;;11.83;55.65;98241.78;6279929;20;2741008;-46
2024/02/23 00:57:29;;;;;;;;;7.00;7.00;;;;;11.81;55.93;98234.84;6279998;20;2748291;-47
2024/02/23 00:59:58;;;;;;;;;6.00;6.00;;;;;11.77;56.62;98246.88;6282947;20;2741703;-47
2024/02/23 01:02:25;;;;;;;;;6.00;6.00;;;;;11.79;56.75;98239.50;6279797;20;2737833;-46
2024/02/23 01:04:56;;;;;;;;;7.00;7.00;;;;;11.80;57.32;98241.22;6279137;20;2741949;-47
2024/02/23 01:07:25;;;;;;;;;6.00;6.00;;;;;11.76;57.78;98240.63;6283480;20;2731522;-44
2024/02/23 01:09:55;;;;;;;;;6.50;6.50;;;;;11.70;57.82;98243.88;6282573;20;2746119;-44
2024/02/23 01:12:23;;;;;;;;;4.50;4.50;;;;;11.64;58.58;98247.13;6280411;20;2746147;-46
2024/02/23 01:14:50;;;;;;;;;9.00;6.00;;;;;11.61;58.81;98232.13;6278772;20;2746108;-46
2024/02/23 01:17:18;;;;;;;;;6.00;6.00;;;;;11.62;59.66;98231.13;6281742;20;2735842;-47
2024/02/23 01:19:46;;;;;;;;;8.50;7.00;;;;;11.46;60.03;98230.78;6281987;20;2748258;-45
2024/02/23 01:22:14;;;;;;;;;9.00;7.50;;;;;11.47;60.52;98227.13;6280618;20;2746572;-46
2024/02/23 01:24:42;;;;;;;;;6.00;6.00;;;;;11.40;61.05;98234.00;6279317;20;2733701;-48
2024/02/23 01:27:10;;;;;;;;;7.00;7.00;;;;;11.28;62.23;98224.38;6282656;20;2745095;-46
2024/02/23 01:29:38;;;;;;;;;9.00;8.00;;;;;11.35;62.45;98241.66;6279667;20;2730518;-45
2024/02/23 01:32:06;;;;;;;;;6.00;4.50;;;;;11.10;63.72;98219.59;6281576;20;2748304;-46
2024/02/23 01:34:34;;;;;;;;;7.00;6.00;;;;;11.27;63.58;98217.25;6280688;20;2736743;-48
2024/02/23 01:37:01;;;;;;;;;6.00;5.00;;;;;11.28;63.91;98219.00;6280682;20;2732611;-46
2024/02/23 01:39:29;;;;;;;;;8.50;7.00;;;;;11.23;64.40;98223.91;6281492;20;2743061;-46
2024/02/23 01:41:57;;;;;;;;;8.00;6.00;;;;;11.12;64.80;98220.31;6280365;20;2736782;-48
2024/02/23 01:44:25;;;;;;;;;7.00;7.00;;;;;10.96;65.79;98214.59;6282040;20;2741933;-46
2024/02/23 01:46:53;;;;;;;;;7.00;7.00;;;;;11.14;65.67;98218.38;6282073;20;2738854;-46
2024/02/23 01:49:29;;;;;;;;;8.29;6.00;;;;;10.94;66.29;98212.03;6320108;20;1797187;-45
2024/02/23 01:52:05;;;;;;;;;6.00;6.00;;;;;11.00;66.44;98207.97;6350531;20;1793559;-45
2024/02/23 01:54:34;;;;;;;;;5.00;5.00;;;;;10.92;67.35;98207.78;6312143;20;2743044;-45
2024/02/23 01:57:02;;;;;;;;;7.00;7.00;;;;;10.98;67.92;98212.63;6280898;20;2736583;-44
2024/02/23 01:59:50;;;;;;;;;5.00;5.00;;;;;10.94;67.85;98206.66;6312545;20;2740902;-47
2024/02/23 02:02:18;;;;;;;;;5.00;5.00;;;;;10.86;69.05;98206.47;6310690;20;2743193;-45
2024/02/23 02:04:46;;;;;;;;;7.50;7.50;;;;;10.79;69.01;98197.25;6276935;20;2734710;-44
2024/02/23 02:07:14;;;;;;;;;6.00;6.00;;;;;10.83;69.09;98197.84;6280674;20;2744053;-45
2024/02/23 02:09:42;;;;;;;;;5.50;5.50;;;;;10.84;69.59;98204.91;6283800;20;2737894;-45
2024/02/23 02:12:10;;;;;;;;;7.00;7.00;;;;;10.91;68.64;98195.34;6298433;20;1803061;-45
2024/02/23 02:14:38;;;;;;;;;6.50;6.50;;;;;10.84;69.37;98191.47;6312092;20;2742065;-45
2024/02/23 02:17:08;;;;;;;;;6.33;6.33;;;;;10.77;69.33;98186.66;6321847;20;1797176;-45
2024/02/23 02:19:36;;;;;;;;;10.50;9.50;;;;;10.87;69.63;98199.28;6276485;20;2774314;-47
2024/02/23 02:22:05;;;;;;;;;8.00;8.00;;;;;11.08;68.65;98202.75;6281813;20;2744037;-44
2024/02/23 02:24:33;;;;;;;;;6.00;5.00;;;;;10.94;69.72;98200.44;6278447;20;2748196;-44
2024/02/23 02:27:00;;;;;;;;;7.00;7.00;;;;;10.77;70.67;98197.41;6279963;20;2740940;-45
2024/02/23 02:29:28;;;;;;;;;8.00;6.00;;;;;10.84;70.61;98199.53;6280404;20;2746271;-44
2024/02/23 02:31:56;;;;;;;;;8.00;8.00;;;;;10.74;71.61;98194.97;6278686;20;2730566;-45
2024/02/23 02:34:23;;;;;;;;;6.00;6.00;;;;;10.73;72.36;98192.41;6309857;20;2748223;-46
2024/02/23 02:36:51;;;;;;;;;8.50;6.00;;;;;10.74;72.74;98194.97;6280091;20;2743051;-45
2024/02/23 02:39:19;;;;;;;;;7.00;5.00;;;;;10.72;73.09;98180.84;6281020;20;2731536;-46
2024/02/23 02:41:49;;;;;;;;;4.50;4.50;;;;;10.63;73.84;98186.13;6328090;20;1808753;-47
2024/02/23 02:44:17;;;;;;;;;8.00;6.00;;;;;10.70;74.43;98188.16;6310131;20;2745114;-48
2024/02/23 02:46:47;;;;;;;;;10.20;7.00;;;;;10.83;74.77;98184.44;6303819;20;2742010;-46
2024/02/23 02:49:15;;;;;;;;;6.00;6.00;;;;;10.59;77.16;98190.09;6311804;20;2738789;-44
2024/02/23 02:51:42;;;;;;;;;7.50;7.50;;;;;10.42;78.55;98189.66;6312109;20;2733729;-44
2024/02/23 02:54:10;;;;;;;;;8.00;5.00;;;;;10.38;79.70;98192.75;6309159;20;2738950;-43
2024/02/23 02:56:47;;;;;;;;;7.50;7.00;;;;;10.47;79.89;98186.59;6279659;20;2743022;-44
2024/02/23 02:59:15;;;;;;;;;7.50;7.00;;;;;10.41;80.67;98185.28;6278113;20;2744009;-45
2024/02/23 03:01:43;;;;;;;;;6.50;6.00;;;;;10.47;80.48;98179.38;6277639;20;2744139;-46
2024/02/23 03:04:10;;;;;;;;;6.00;6.00;;;;;10.38;81.18;98187.41;6279821;20;2746101;-44
2024/02/23 03:06:38;;;;;;;;;7.00;7.00;;;;;10.47;80.75;98190.13;6310614;20;2746238;-44
2024/02/23 03:09:07;;;;;;;;;8.00;8.00;;;;;10.41;81.47;98187.13;6277949;20;2728553;-46
2024/02/23 03:11:35;;;;;;;;;7.50;6.00;;;;;10.55;80.92;98192.16;6309598;20;2742956;-43
2024/02/23 03:14:03;;;;;;;;;9.00;6.00;;;;;10.49;81.80;98190.84;6277843;20;2739878;-45
2024/02/23 03:16:31;;;;;;;;;7.00;6.00;;;;;10.45;82.36;98188.56;6277322;20;2735731;-47
2024/02/23 03:18:59;;;;;;;;;7.00;7.00;;;;;10.44;82.98;98186.88;6276115;20;2735736;-46
2024/02/23 03:21:26;;;;;;;;;8.00;8.00;;;;;10.39;83.30;98183.72;6278136;20;2731581;-45
2024/02/23 03:23:54;;;;;;;;;6.00;6.00;;;;;10.29;85.93;98194.38;6309248;20;2739960;-44
2024/02/23 03:26:22;;;;;;;;;8.50;8.50;;;;;10.56;84.89;98196.56;6277653;20;2754461;-45
2024/02/23 03:28:50;;;;;;;;;8.00;7.00;;;;;10.28;87.84;98196.22;6277241;20;2746131;-44
2024/02/23 03:31:17;;;;;;;;;7.00;7.00;;;;;10.21;89.32;98203.03;6279277;20;2734775;-48
2024/02/23 03:33:45;;;;;;;;;12.00;10.00;;;;;10.18;90.65;98197.06;6305860;20;2784633;-46
2024/02/23 03:36:14;;;;;;;;;8.75;7.50;;;;;10.14;90.74;98200.97;6294131;20;1819185;-47
2024/02/23 03:38:42;;;;;;;;;8.00;6.00;;;;;10.19;89.99;98206.81;6308273;20;2742995;-47
2024/02/23 03:41:11;;;;;;;;;8.40;8.00;;;;;10.14;90.50;98207.22;6331699;20;2750317;-46
2024/02/23 03:43:39;;;;;;;;;7.00;7.00;;;;;10.22;91.02;98202.06;6301653;20;2740055;-49
2024/02/23 03:46:07;;;;;;;;;9.00;9.00;;;;;10.16;91.17;98205.25;6274323;20;2748243;-45
2024/02/23 03:48:36;;;;;;;;;6.00;6.00;;;;;10.11;92.15;98212.84;6278368;20;2754456;-46
2024/02/23 03:51:05;;;;;;;;;9.00;8.00;;;;;10.09;91.88;98209.44;6282707;20;2023475;-44
2024/02/23 03:53:32;;;;;;;;;7.00;7.00;;;;;9.97;92.44;98213.97;6309815;20;2741958;-45
2024/02/23 03:56:04;;;;;;;;;7.80;7.80;;;;;9.79;93.75;98208.28;6317865;20;2469033;-44
2024/02/23 03:58:32;;;;;;;;;9.50;8.00;;;;;10.08;94.05;98215.75;6309660;20;2754486;-45
2024/02/23 04:01:00;;;;;;;;;8.00;8.00;;;;;9.94;94.17;98216.91;6276415;20;2756574;-44
2024/02/23 04:03:27;;;;;;;;;7.00;7.00;;;;;10.00;95.49;98216.38;6276772;20;2733657;-44
2024/02/23 04:05:55;;;;;;;;;9.00;9.00;;;;;9.98;94.42;98214.81;6308079;20;2754523;-43
2024/02/23 04:08:23;;;;;;;;;9.50;7.50;;;;;9.89;95.49;98217.28;6278657;20;2758674;-44
2024/02/23 04:10:51;;;;;;;;;8.50;7.50;;;;;9.80;97.36;98226.09;6275628;20;2753432;-49
2024/02/23 04:13:19;;;;;;;;;11.00;9.50;;;;;9.87;98.59;98216.59;6275286;20;2779487;-47
2024/02/23 04:15:47;;;;;;;;;8.50;8.50;;;;;9.77;99.14;98215.63;6278018;20;2742052;-47
2024/02/23 04:18:15;;;;;;;;;9.50;9.00;;;;;9.78;100.00;98211.97;6271061;20;2756511;-47
2024/02/23 04:20:45;;;;;;;;;15.40;10.40;;;;;9.82;99.06;98213.44;6300906;20;2794020;-46
2024/02/23 04:23:13;;;;;;;;;10.50;9.00;;;;;9.83;99.71;98215.13;6277476;20;2768019;-45
2024/02/23 04:25:42;;;;;;;;;10.80;10.40;;;;;9.77;100.00;98215.63;6297446;20;2794033;-48
2024/02/23 04:28:10;;;;;;;;;12.00;12.00;;;;;9.76;100.00;98215.75;6276130;20;2790050;-46
2024/02/23 04:30:38;;;;;;;;;12.67;10.67;;;;;9.93;100.00;98220.59;6275712;20;2791073;-45
2024/02/23 04:33:10;;;;;;;;;10.14;9.00;;;;;9.81;100.00;98214.38;6350410;20;1808128;-45
2024/02/23 04:35:38;;;;;;;;;8.50;8.50;;;;;9.94;100.00;98211.56;6306210;20;2734684;-46
2024/02/23 04:38:07;;;;;;;;;12.20;10.20;;;;;9.86;100.00;98214.84;6295362;20;2790916;-45
2024/02/23 04:40:37;;;;;;;;;12.40;10.00;;;;;9.84;100.00;98208.75;6300564;20;2791977;-45
2024/02/23 04:43:05;;;;;;;;;11.50;10.00;;;;;9.84;100.00;98210.59;6278738;20;2781628;-45
2024/02/23 04:45:33;;;;;;;;;12.00;11.00;;;;;9.89;100.00;98211.06;6276384;20;2789887;-46
2024/02/23 04:48:01;;;;;;;;;9.50;7.50;;;;;9.80;100.00;98215.38;6277404;20;2757576;-46
2024/02/23 04:50:30;;;;;;;;;11.00;11.00;;;;;9.60;100.00;98210.78;6276212;20;2797150;-46
2024/02/23 04:52:58;;;;;;;;;9.50;9.50;;;;;9.83;100.00;98208.91;6302860;20;2775335;-45
2024/02/23 04:55:25;;;;;;;;;9.00;9.00;;;;;9.68;100.00;98208.31;6283457;20;1985818;-46
2024/02/23 04:57:56;;;;;;;;;12.00;12.00;;;;;9.59;100.00;98207.25;6327510;20;2792077;-45
2024/02/23 05:00:28;;;;;;;;;11.50;11.50;;;;;9.77;100.00;98221.00;6275678;20;2796111;-45
2024/02/23 05:02:56;;;;;;;;;11.50;10.00;;;;;9.75;100.00;98222.94;6274274;20;2798239;-44
2024/02/23 05:05:25;;;;;;;;;12.33;10.33;;;;;9.75;100.00;98228.31;6273340;20;2799343;-45
2024/02/23 05:07:53;;;;;;;;;9.00;9.00;;;;;9.75;100.00;98233.66;6314043;20;2743020;-45
2024/02/23 05:10:22;;;;;;;;;17.00;12.00;;;;;9.62;100.00;98232.94;6305180;20;2783653;-44
2024/02/23 05:12:50;;;;;;;;;11.50;9.50;;;;;9.69;100.00;98239.53;6273673;20;2774342;-47
2024/02/23 05:15:18;;;;;;;;;11.50;9.00;;;;;9.72;100.00;98233.91;6270484;20;2774481;-44
2024/02/23 05:17:46;;;;;;;;;9.50;9.00;;;;;9.73;100.00;98240.97;6270995;20;2768195;-44
2024/02/23 05:20:16;;;;;;;;;11.20;10.60;;;;;9.62;100.00;98232.94;6295781;20;2791974;-45
2024/02/23 05:22:44;;;;;;;;;8.00;7.25;;;;;9.50;100.00;98239.28;6293105;20;1814060;-44
2024/02/23 05:25:12;;;;;;;;;10.00;9.00;;;;;9.56;100.00;98246.84;6305596;20;2769154;-45
2024/02/23 05:27:40;;;;;;;;;10.00;10.00;;;;;9.49;100.00;98248.31;6271689;20;2798249;-44
2024/02/23 05:30:08;;;;;;;;;9.50;9.50;;;;;9.62;100.00;98247.19;6275118;20;2777517;-44
2024/02/23 05:32:36;;;;;;;;;8.50;8.50;;;;;9.35;100.00;98241.41;6282486;20;2748232;-47
2024/02/23 05:35:05;;;;;;;;;10.50;10.00;;;;;9.54;100.00;98259.53;6277360;20;2788796;-46
2024/02/23 05:37:37;;;;;;;;;11.20;11.20;;;;;9.44;100.00;98252.19;6300725;20;2786825;-44
2024/02/23 05:40:10;;;;;;;;;13.67;12.67;;;;;9.41;100.00;98257.81;6280850;20;2789840;-45
2024/02/23 05:42:38;;;;;;;;;12.00;9.00;;;;;9.35;100.00;98258.31;6316044;20;2769016;-44
2024/02/23 05:45:09;;;;;;;;;12.00;10.50;;;;;9.47;100.00;98271.69;6278684;20;2792314;-45
2024/02/23 05:47:40;;;;;;;;;14.00;9.80;;;;;9.37;100.00;98269.75;6305557;20;2792995;-45
2024/02/23 05:50:13;;;;;;;;;11.00;11.00;;;;;9.24;100.00;98277.03;6278603;20;2791409;-44
2024/02/23 05:52:41;;;;;;;;;11.00;11.00;;;;;9.18;100.00;98282.88;6282274;20;2788875;-45
2024/02/23 05:55:09;;;;;;;;;7.00;7.00;;;;;9.27;100.00;98283.97;6279227;20;2751359;-45
2024/02/23 05:57:37;;;;;;;;;11.00;11.00;;;;;9.16;100.00;98295.53;6282896;20;2790006;-46
2024/02/23 06:00:07;;;;;;;;;12.33;12.33;;;;;9.06;100.00;98290.06;6276311;20;2799210;-45
2024/02/23 06:02:35;;;;;;;;;14.00;12.00;;;;;9.21;100.00;98304.06;6313775;20;2786731;-46
2024/02/23 06:05:03;;;;;;;;;18.00;12.00;;;;;9.12;100.00;98304.78;6277938;20;2793112;-46
2024/02/23 06:07:32;;;;;;;;;9.00;9.00;;;;;9.24;100.00;98314.53;6276290;20;2755530;-48
2024/02/23 06:10:01;;;;;;;;;10.00;9.80;;;;;9.30;100.00;98302.50;6304973;20;2760750;-44
2024/02/23 06:12:30;;;;;;;;;12.00;12.00;;;;;9.12;100.00;98311.00;6276820;20;2791955;-45
2024/02/23 06:14:58;;;;;;;;;11.67;11.00;;;;;9.32;100.00;98313.94;6308065;20;2786734;-48
2024/02/23 06:17:27;;;;;;;;;11.33;11.33;;;;;9.19;100.00;98308.72;6308061;20;2785767;-46
2024/02/23 06:19:57;;;;;;;;;10.00;10.00;;;;;9.31;100.00;98325.63;6312644;20;2789917;-45
2024/02/23 06:22:27;;;;;;;;;12.40;11.00;;;;;9.48;100.00;98324.28;6303561;20;2789928;-43
2024/02/23 06:24:54;;;;;;;;;12.00;12.00;;;;;9.31;100.00;98323.78;6280739;20;2807586;-44
2024/02/23 06:27:25;;;;;;;;;7.75;6.25;;;;;9.14;100.00;98325.13;6298964;20;1812875;-45
2024/02/23 06:29:53;;;;;;;;;14.67;14.00;;;;;9.34;100.00;98334.25;6309797;20;2807618;-48
2024/02/23 06:32:21;;;;;;;;;14.00;12.50;;;;;9.38;100.00;98327.72;6308042;20;2790942;-46
2024/02/23 06:34:49;;;;;;;;;10.00;10.00;;;;;9.32;100.00;98333.56;6275361;20;2786830;-47
2024/02/23 06:37:17;;;;;;;;;11.50;11.00;;;;;9.28;100.00;98331.22;6277387;20;2789959;-46
2024/02/23 06:39:49;;;;;;;;;15.00;12.00;;;;;9.38;100.00;98333.06;6277049;20;2792969;-45
2024/02/23 06:42:18;;;;;;;;;17.00;16.33;;;;;9.17;100.00;98332.06;6275830;20;3557652;-46
2024/02/23 06:44:48;;;;;;;;;13.00;13.00;;;;;9.30;100.00;98330.13;6286187;20;3526422;-45
2024/02/23 06:47:16;;;;;;;;;13.00;13.00;;;;;9.43;100.00;98330.88;6276911;20;2793113;-45
2024/02/23 06:49:46;;;;;;;;;12.67;12.67;;;;;9.40;100.00;98331.13;6277417;20;3524200;-47
2024/02/23 06:52:14;;;;;;;;;17.00;14.67;;;;;9.50;100.00;98335.75;6308673;20;3537862;-45
2024/02/23 06:54:43;;;;;;;;;14.00;12.67;;;;;9.42;100.00;98344.38;6305697;20;2803516;-49
2024/02/23 06:57:12;;;;;;;;;11.60;9.40;;;;;9.32;100.00;98338.03;6334720;20;2783672;-48
2024/02/23 06:59:41;;;;;;;;;15.33;14.00;;;;;9.34;100.00;98344.97;6275123;20;3539874;-46
2024/02/23 07:02:10;;;;;;;;;19.33;15.00;;;;;9.30;100.00;98332.81;6273701;20;3546230;-45
2024/02/23 07:04:38;;;;;;;;;17.33;13.67;;;;;9.52;100.00;98339.16;6276020;20;3544139;-47
2024/02/23 07:07:08;;;;;;;;;14.00;14.00;;;;;9.32;100.00;98333.56;6304754;20;3534648;-46
2024/02/23 07:09:36;;;;;;;;;12.00;11.00;;;;;9.58;100.00;98341.34;6277888;20;2796119;-44
2024/02/23 07:12:05;;;;;;;;;13.00;13.00;;;;;9.42;100.00;98339.88;6275485;20;3524333;-45
2024/02/23 07:14:34;;;;;;;;;14.67;14.67;;;;;9.48;100.00;98341.25;6305984;20;3528417;-45
2024/02/23 07:17:03;;;;;;;;;15.00;15.00;;;;;9.52;100.00;98339.16;6272772;20;3544516;-43
2024/02/23 07:19:31;;;;;;;;;18.00;17.00;;;;;9.58;100.00;98344.03;6307649;20;2831687;-45
2024/02/23 07:22:00;;;;;;;;;13.33;12.33;;;;;9.57;100.00;98348.53;6276214;20;3533623;-46
2024/02/23 07:24:28;;;;;;;;;16.33;15.33;;;;;9.64;100.00;98355.13;6302762;20;3552344;-48
2024/02/23 07:26:56;;;;;;;;;17.00;14.00;;;;;9.59;100.00;98357.31;6277944;20;2804547;-47
2024/02/23 07:29:25;;;;;;;;;17.00;16.67;;;;;9.58;100.00;98350.22;6275540;20;3567982;-44
2024/02/23 07:31:52;;;;;;;;;18.00;16.50;;;;;9.64;100.00;98347.09;6275372;20;2828458;-42
2024/02/23 07:34:20;;;;;;;;;18.00;18.00;;;;;9.73;100.00;98356.22;6272919;20;2492052;-44
2024/02/23 07:36:53;;;;;;;;;16.67;16.67;;;;;9.75;100.00;98356.09;6277226;20;3569138;-44
2024/02/23 07:39:22;;;;;;;;;18.00;15.00;;;;;9.77;100.00;98364.84;6276145;20;3548196;-44
2024/02/23 07:41:49;;;;;;;;;17.50;17.50;;;;;9.71;100.00;98360.84;6276669;20;2500385;-45
2024/02/23 07:44:17;;;;;;;;;16.00;14.00;;;;;9.64;100.00;98365.00;6274121;20;2814862;-44
2024/02/23 07:46:45;;;;;;;;;16.50;16.00;;;;;9.60;100.00;98366.19;6276827;20;2500287;-45
2024/02/23 07:49:13;;;;;;;;;18.50;17.00;;;;;9.93;100.00;98356.47;6279394;20;2829512;-43
2024/02/23 07:51:41;;;;;;;;;16.00;16.00;;;;;9.77;100.00;98354.13;6276037;20;2500343;-44
2024/02/23 07:54:09;;;;;;;;;12.33;12.33;;;;;9.86;100.00;98362.31;6272624;20;2794115;-45
2024/02/23 07:56:38;;;;;;;;;20.50;19.00;;;;;10.05;100.00;98358.13;6304980;20;2839878;-44
2024/02/23 07:59:07;;;;;;;;;21.00;20.50;;;;;9.97;100.00;98355.22;6275531;20;2847332;-43
2024/02/23 08:01:35;;;;;;;;;17.00;17.00;;;;;9.98;100.00;98354.25;6273815;20;2500292;-45
2024/02/23 08:04:04;;;;;;;;;24.50;23.00;;;;;10.20;100.00;98351.53;6274950;20;2843036;-43
2024/02/23 08:06:32;;;;;;;;;19.00;17.00;;;;;10.13;100.00;98355.69;6275572;20;2500335;-43
2024/02/23 08:09:00;;;;;;;;;20.00;19.00;;;;;10.14;100.00;98352.03;6280715;20;2825291;-44
2024/02/23 08:11:29;;;;;;;;;17.67;15.33;;;;;10.25;100.00;98357.38;6275968;20;3556617;-45
2024/02/23 08:13:58;;;;;;;;;14.00;13.00;;;;;10.22;100.00;98363.00;6277608;20;2808628;-43
2024/02/23 08:16:27;;;;;;;;;16.00;15.00;;;;;10.08;100.00;98365.94;6277233;20;3542964;-46
2024/02/23 08:18:56;;;;;;;;;15.67;14.67;;;;;10.25;100.00;98365.44;6275495;20;3526355;-43
2024/02/23 08:21:26;;;;;;;;;18.00;16.50;;;;;10.13;100.00;98369.09;6307513;20;2826356;-43
2024/02/23 08:23:55;;;;;;;;;35.67;32.67;;;;;10.18;100.00;98377.63;6273637;20;2863860;-44
2024/02/23 08:26:24;;;;;;;;;15.00;13.00;;;;;10.14;100.00;98378.88;6308036;20;3523983;-44
2024/02/23 08:28:52;;;;;;;;;15.33;15.33;;;;;10.24;100.00;98382.50;6309071;20;3541968;-43
2024/02/23 08:31:21;;;;;;;;;18.00;16.67;;;;;10.08;100.00;98380.22;6276179;20;2829487;-43
2024/02/23 08:33:50;;;;;;;;;15.50;15.00;;;;;10.22;100.00;98386.28;6308601;20;2807580;-43
2024/02/23 08:36:18;;;;;;;;;19.00;17.00;;;;;10.22;100.00;98387.13;6273116;20;2498199;-43
2024/02/23 08:38:45;;;;;;;;;18.00;16.00;;;;;10.32;100.00;98380.09;6277041;20;2500290;-44
2024/02/23 08:41:14;;;;;;;;;18.33;16.00;;;;;10.14;100.00;98381.56;6277016;20;3565919;-44
2024/02/23 08:43:43;;;;;;;;;14.33;14.33;;;;;10.32;100.00;98382.78;6272038;20;3530588;-45
2024/02/23 08:46:11;;;;;;;;;15.00;13.00;;;;;10.59;100.00;98384.16;6311275;20;2806587;-43
2024/02/23 08:48:39;;;;;;;;;13.00;11.67;;;;;10.29;100.00;98388.38;6276147;20;3527340;-43
2024/02/23 08:51:08;;;;;;;;;13.00;13.00;;;;;10.30;100.00;98392.75;6306573;20;3520134;-44
2024/02/23 08:53:37;;;;;;;;;15.67;14.67;;;;;10.39;100.00;98395.69;6306036;20;2799343;-43
2024/02/23 08:56:08;;;;;;;;;18.00;16.50;;;;;10.37;100.00;98395.78;6306714;20;2836745;-43
2024/02/23 08:58:36;;;;;;;;;17.00;15.00;;;;;10.30;100.00;98389.25;6276911;20;2807693;-45
2024/02/23 09:01:04;;;;;;;;;17.00;16.33;;;;;10.33;100.00;98392.50;6273903;20;3556525;-47
2024/02/23 09:03:33;;;;;;;;;16.33;14.67;;;;;10.54;100.00;98386.38;6307285;20;3546150;-47
2024/02/23 09:06:03;;;;;;;;;16.00;15.00;;;;;10.46;100.00;98399.56;6310011;20;3548306;-45
2024/02/23 09:08:32;;;;;;;;;13.00;12.00;;;;;10.47;100.00;98395.91;6283739;20;2802378;-43
2024/02/23 09:11:00;;;;;;;;;14.00;12.67;;;;;10.50;100.00;98401.84;6283132;20;3534649;-44
2024/02/23 09:13:30;;;;;;;;;13.67;13.00;;;;;10.24;100.00;98405.78;6279341;20;3532564;-46
2024/02/23 09:15:57;;;;;;;;;11.50;11.50;;;;;10.36;100.00;98412.03;6314861;20;2799227;-43
2024/02/23 09:18:27;;;;;;;;;14.67;12.67;;;;;10.51;100.00;98408.94;6282676;20;3524254;-43
2024/02/23 09:20:55;;;;;;;;;18.50;15.50;;;;;10.36;100.00;98409.34;6308388;20;2825346;-44
2024/02/23 09:23:24;;;;;;;;;22.00;19.00;;;;;10.44;100.00;98412.25;6281671;20;2844096;-43
2024/02/23 09:25:53;;;;;;;;;19.00;19.00;;;;;10.52;100.00;98412.47;6278334;20;3566042;-45
2024/02/23 09:28:22;;;;;;;;;14.00;14.00;;;;;10.30;100.00;98414.22;6281320;20;3530503;-43
2024/02/23 09:30:51;;;;;;;;;17.00;14.00;;;;;10.37;100.00;98411.03;6278277;20;3541929;-43
2024/02/23 09:33:20;;;;;;;;;14.00;14.00;;;;;10.64;100.00;98414.16;6283051;20;2796246;-44
2024/02/23 09:35:48;;;;;;;;;15.50;14.50;;;;;10.50;100.00;98414.44;6283460;20;2808641;-43
2024/02/23 09:38:16;;;;;;;;;13.00;13.00;;;;;10.46;100.00;98411.16;6284410;20;2788943;-45
2024/02/23 09:40:46;;;;;;;;;15.00;12.33;;;;;10.40;100.00;98418.84;6278124;20;3545197;-47
2024/02/23 09:43:16;;;;;;;;;14.33;14.33;;;;;10.61;100.00;98410.84;6312531;20;3533769;-43
2024/02/23 09:45:46;;;;;;;;;15.00;13.00;;;;;10.57;100.00;98428.22;6308995;20;3535711;-44
2024/02/23 09:48:18;;;;;;;;;13.00;11.00;;;;;10.77;100.00;98428.28;6309846;20;2785736;-45
2024/02/23 09:50:48;;;;;;;;;11.67;11.33;;;;;10.81;100.00;98420.81;6281279;20;2794112;-44
2024/02/23 09:53:20;;;;;;;;;16.67;14.67;;;;;10.83;100.00;98418.00;6312204;20;3544030;-44
2024/02/23 09:55:51;;;;;;;;;14.00;14.00;;;;;10.88;100.00;98426.53;6277087;20;3534675;-44
2024/02/23 09:58:21;;;;;;;;;16.50;16.50;;;;;10.86;100.00;98428.50;6310257;20;2822275;-44
2024/02/23 10:00:51;;;;;;;;;17.33;16.00;;;;;10.82;100.00;98427.03;6277276;20;3554449;-45
2024/02/23 10:03:20;;;;;;;;;14.33;14.00;;;;;10.91;100.00;98420.91;6312389;20;3531530;-47
2024/02/23 10:05:48;;;;;;;;;16.00;14.50;;;;;11.12;100.00;98424.47;6279896;20;2806545;-47
2024/02/23 10:08:16;;;;;;;;;15.67;14.00;;;;;10.96;100.00;98430.28;6279894;20;2796759;-45
2024/02/23 10:10:49;;;;;;;;;15.00;15.00;;;;;10.92;100.00;98425.28;6312080;20;3541975;-44
2024/02/23 10:13:24;;;;;;;;;19.00;17.33;;;;;11.10;100.00;98437.19;6278519;20;2829564;-44
2024/02/23 10:15:53;;;;;;;;;15.00;13.33;;;;;10.94;100.00;98431.38;6311468;20;3535036;-45
2024/02/23 10:18:42;;;;;;;;;18.67;16.00;;;;;10.99;100.00;98429.19;6278403;20;3553404;-46
2024/02/23 10:21:11;;;;;;;;;18.33;16.00;;;;;10.67;100.00;98430.00;6276357;20;3560682;-45
2024/02/23 10:23:41;;;;;;;;;18.33;13.67;;;;;10.77;100.00;98433.66;6275975;20;3535802;-46
2024/02/23 10:26:10;;;;;;;;;14.00;14.00;;;;;10.89;100.00;98438.97;6273876;20;3539877;-44
2024/02/23 10:28:38;;;;;;;;;14.00;14.00;;;;;10.97;100.00;98447.25;6279489;20;2802394;-44
2024/02/23 10:31:07;;;;;;;;;17.00;16.00;;;;;11.02;100.00;98447.72;6279810;20;2831562;-45
2024/02/23 10:33:42;;;;;;;;;15.00;14.67;;;;;11.04;100.00;98447.59;6277873;20;3532595;-44
2024/02/23 10:36:12;;;;;;;;;16.00;13.00;;;;;10.80;100.00;98461.22;6279197;20;2802402;-46
2024/02/23 10:38:46;;;;;;;;;16.67;15.00;;;;;10.88;100.00;98454.25;6278915;20;3552397;-46
2024/02/23 10:41:18;;;;;;;;;17.67;15.33;;;;;10.90;100.00;98446.03;6308669;20;3552443;-53
2024/02/23 10:43:48;;;;;;;;;20.00;16.00;;;;;10.93;100.00;98451.19;6276219;20;3562796;-44
2024/02/23 10:46:20;;;;;;;;;15.00;15.00;;;;;11.21;100.00;98455.94;6277971;20;3541964;-44
2024/02/23 10:48:50;;;;;;;;;14.50;14.50;;;;;11.12;100.00;98456.72;6280265;20;2810761;-46
2024/02/23 10:51:18;;;;;;;;;16.00;16.00;;;;;11.02;100.00;98450.41;6280256;20;3554553;-46
2024/02/23 10:53:49;;;;;;;;;14.00;14.00;;;;;11.21;100.00;98450.56;6274045;20;3524343;-44
2024/02/23 10:56:19;;;;;;;;;14.33;14.33;;;;;11.14;100.00;98454.75;6274574;20;3527348;-46
2024/02/23 10:58:48;;;;;;;;;14.00;12.67;;;;;11.16;100.00;98455.50;6307672;20;3526343;-45
2024/02/23 11:01:20;;;;;;;;;15.00;15.00;;;;;11.18;100.00;98456.19;6308875;20;3541973;-46
2024/02/23 11:03:50;;;;;;;;;18.50;17.50;;;;;11.06;100.00;98449.19;6277005;20;2834763;-45
2024/02/23 11:06:23;;;;;;;;;21.00;18.00;;;;;11.06;100.00;98449.19;6278155;20;2841977;-45
2024/02/23 11:08:52;;;;;;;;;40.50;33.00;;;;;11.27;100.00;98443.84;6277187;20;2846137;-45
2024/02/23 11:11:22;;;;;;;;;54.67;43.00;;;;;11.37;100.00;98451.94;6279119;20;3635031;-44
2024/02/23 11:13:57;;;;;;;;;25.00;22.50;;;;;11.26;100.00;98447.50;6306873;20;2843078;-46